Angora, NE (69331)

6:44 AM MDT on July 25, 2016 (GMT -0600)
Wayne Rd. | | Change Station

Elev 4091 ft 42.02 °N, 103.05 °W | Updated 11 minutes ago

Clear
Clear
58.2 °F
Feels Like 58.2 °F
N
4.0
Wind Variable Wind from South
Gusts 7.0 mph

Today
High -- | Low -- °F
--% Chance of Precip.
Yesterday
High -- | Low -- °F
Precip. -- in
Pressure 30.07 in
Visibility 7.0 miles
Clouds Clear
Dew Point 55 °F
Humidity 90%
Rainfall 0.00 in
Snow Depth Not available.
5:39 AM 8:17 PM
Waning Gibbous, 66% visible
METAR KAIA 251153Z AUTO 15006KT 7SM CLR 13/13 A3018 RMK AO2 SLP183 T01280128 10156 20117 50001
Pressure 30.07 in
Visibility 7.0 miles
Clouds Clear
Dew Point 55 °F
Humidity 90%
Rainfall 0.00 in
Snow Depth Not available.
5:39 AM 8:17 PM
Waning Gibbous, 66% visible
METAR KAIA 251153Z AUTO 15006KT 7SM CLR 13/13 A3018 RMK AO2 SLP183 T01280128 10156 20117 50001

10-Day Weather Forecast

Almanac

Astronomy

Jul. 25, 2016 Rise Set
Actual Time
Civil Twilight
Nautical Twilight
Astronomical Twilight
Moon
Length of Visible Light
Length of Day
Tomorrow will be .
, % of the Moon is Illuminated

Today's Extremes

State Highs State Lows

Community

WunderPhotos

Upload Photos

1,927,296 photos uploaded!

WunderBlog® & News

Nearby

Air Quality

  Air Quality AQ Index Pollutant
Not available.

Snow Depth

Station Depth Elevation

Earthquake Activity

City Distance Mag. Time & Date
Minimum magnitude displayed is 2.5.

Coastal Water Temperatures

Place Temperature

Stations

Nearby Weather Stations

Station Location Temp. Windchill Dew Point Humidity Wind Precip. Elev Updated Type
                   

Watches & Warnings

There are currently no watches in effect.